Time;durP1;ratioP1;P1;durP2;ratioP2;P2;SDS_P1;SDS_P2;PMS_P1;PMS_P2;Temp;Humidity;BMP_temperature;BMP_pressure;BME280_temperature;BME280_humidity;BME280_pressure;Samples;Min_cycle;Max_cycle;Signal;HPM_P1;HPM_P2
2023/03/13 00:01:02;;;;;;;5.17;3.67;;;;;;;;;;5077827;28;20264;-64
2023/03/13 00:03:30;;;;;;;9.87;3.13;;;;;;;;;;5077770;28;20677;-64
2023/03/13 00:06:00;;;;;;;5.67;3.27;;;;;;;;;;5077978;28;20206;-64
2023/03/13 00:08:29;;;;;;;6.13;3.30;;;;;;;;;;5077609;28;20770;-64
2023/03/13 00:10:58;;;;;;;7.17;3.50;;;;;;;;;;5077646;28;20226;-64
2023/03/13 00:13:26;;;;;;;9.03;3.80;;;;;;;;;;5077656;28;20206;-64
2023/03/13 00:15:59;;;;;;;7.20;4.07;;;;;;;;;;5077601;28;20681;-65
2023/03/13 00:18:27;;;;;;;7.53;4.10;;;;;;;;;;5075281;28;20206;-64
2023/03/13 00:21:00;;;;;;;6.57;3.90;;;;;;;;;;5075379;28;20313;-64
2023/03/13 00:23:28;;;;;;;8.63;3.63;;;;;;;;;;5082036;28;20264;-64
2023/03/13 00:25:57;;;;;;;8.60;4.63;;;;;;;;;;5084231;28;20219;-65
2023/03/13 00:28:25;;;;;;;5.10;3.77;;;;;;;;;;5083917;28;20590;-64
2023/03/13 00:31:00;;;;;;;8.33;4.03;;;;;;;;;;5083970;28;20233;-64
2023/03/13 00:33:28;;;;;;;8.87;4.43;;;;;;;;;;5080865;28;20551;-64
2023/03/13 00:35:58;;;;;;;6.63;3.60;;;;;;;;;;5076060;28;20229;-64
2023/03/13 00:38:27;;;;;;;5.07;3.83;;;;;;;;;;5084577;28;20208;-64
2023/03/13 00:40:59;;;;;;;6.87;3.27;;;;;;;;;;5077174;28;20225;-64
2023/03/13 00:43:27;;;;;;;4.50;3.70;;;;;;;;;;5080987;28;20292;-64
2023/03/13 00:45:55;;;;;;;7.10;3.10;;;;;;;;;;5084579;28;20210;-64
2023/03/13 00:48:23;;;;;;;5.27;2.90;;;;;;;;;;5083980;28;20689;-64
2023/03/13 00:50:51;;;;;;;4.67;2.97;;;;;;;;;;5084050;28;20636;-64
2023/03/13 00:53:20;;;;;;;4.43;3.00;;;;;;;;;;5083967;28;20217;-64
2023/03/13 00:55:53;;;;;;;5.63;3.17;;;;;;;;;;5084187;28;20210;-65
2023/03/13 00:58:21;;;;;;;5.77;2.80;;;;;;;;;;5083911;28;20206;-65
2023/03/13 01:00:49;;;;;;;5.00;2.83;;;;;;;;;;5084007;28;20230;-64
2023/03/13 01:03:17;;;;;;;4.00;3.13;;;;;;;;;;5103932;28;20210;-64
2023/03/13 01:05:45;;;;;;;5.60;3.50;;;;;;;;;;5104414;28;20205;-63
2023/03/13 01:08:13;;;;;;;4.23;2.70;;;;;;;;;;5083596;28;20253;-64
2023/03/13 01:10:41;;;;;;;5.57;3.30;;;;;;;;;;5083952;28;20228;-62
2023/03/13 01:13:11;;;;;;;8.93;3.47;;;;;;;;;;5083842;28;20241;-64
2023/03/13 01:15:39;;;;;;;4.57;3.27;;;;;;;;;;5081191;28;20658;-64
2023/03/13 01:18:06;;;;;;;3.33;2.87;;;;;;;;;;5076421;28;20228;-64
2023/03/13 01:20:34;;;;;;;4.87;2.90;;;;;;;;;;5083661;28;20259;-63
2023/03/13 01:23:02;;;;;;;6.70;3.00;;;;;;;;;;5084095;28;20221;-63
2023/03/13 01:25:30;;;;;;;3.90;2.73;;;;;;;;;;5070459;28;20214;-62
2023/03/13 01:27:58;;;;;;;4.37;2.90;;;;;;;;;;5083562;28;20289;-62
2023/03/13 01:30:28;;;;;;;5.60;2.83;;;;;;;;;;5083610;28;20244;-63
2023/03/13 01:32:56;;;;;;;3.17;2.83;;;;;;;;;;5083958;28;20274;-64
2023/03/13 01:35:24;;;;;;;4.50;2.80;;;;;;;;;;5080026;28;20232;-64
2023/03/13 01:37:52;;;;;;;5.27;3.80;;;;;;;;;;5080425;28;20210;-63
2023/03/13 01:40:20;;;;;;;4.33;2.70;;;;;;;;;;5080218;28;20668;-63
2023/03/13 01:42:54;;;;;;;3.37;2.90;;;;;;;;;;5080388;28;20683;-64
2023/03/13 01:45:41;;;;;;;4.53;3.10;;;;;;;;;;5080062;28;20296;-64
2023/03/13 01:48:10;;;;;;;4.73;3.13;;;;;;;;;;5080021;28;20233;-64
2023/03/13 01:50:38;;;;;;;5.97;3.47;;;;;;;;;;5080448;28;20226;-64
2023/03/13 01:53:06;;;;;;;7.73;3.70;;;;;;;;;;5080139;28;20688;-64
2023/03/13 01:55:35;;;;;;;5.90;3.67;;;;;;;;;;5080182;28;20202;-64
2023/03/13 01:58:03;;;;;;;6.43;3.30;;;;;;;;;;5080098;28;20210;-63
2023/03/13 02:00:33;;;;;;;5.23;2.87;;;;;;;;;;5079989;28;20309;-63
2023/03/13 02:03:04;;;;;;;6.10;2.93;;;;;;;;;;5079828;28;20210;-64
2023/03/13 02:05:33;;;;;;;4.87;3.00;;;;;;;;;;5080036;28;20236;-64
2023/03/13 02:08:03;;;;;;;5.23;3.37;;;;;;;;;;5080090;28;20210;-65
2023/03/13 02:10:31;;;;;;;7.00;3.70;;;;;;;;;;5080067;28;20241;-64
2023/03/13 02:13:01;;;;;;;4.83;3.07;;;;;;;;;;5079768;28;20202;-64
2023/03/13 02:15:29;;;;;;;5.30;3.13;;;;;;;;;;5079543;28;20568;-64
2023/03/13 02:17:59;;;;;;;5.13;3.17;;;;;;;;;;5079529;28;20252;-64
2023/03/13 02:20:27;;;;;;;4.10;2.97;;;;;;;;;;5079575;28;20623;-64
2023/03/13 02:22:59;;;;;;;5.40;3.10;;;;;;;;;;5079774;28;20245;-63
2023/03/13 02:25:33;;;;;;;3.77;3.27;;;;;;;;;;5079682;28;20245;-64
2023/03/13 02:28:03;;;;;;;4.97;3.10;;;;;;;;;;5079740;28;20210;-63
2023/03/13 02:30:31;;;;;;;3.97;3.40;;;;;;;;;;5079324;28;20244;-64
2023/03/13 02:33:00;;;;;;;9.60;3.03;;;;;;;;;;5079428;28;20210;-64
2023/03/13 02:35:29;;;;;;;5.93;2.73;;;;;;;;;;5079530;28;20251;-64
2023/03/13 02:37:59;;;;;;;3.73;2.80;;;;;;;;;;5079567;28;20234;-64
2023/03/13 02:40:28;;;;;;;4.10;3.10;;;;;;;;;;5079226;28;20219;-64
2023/03/13 02:43:00;;;;;;;4.80;3.00;;;;;;;;;;5079189;28;20216;-64
2023/03/13 02:45:28;;;;;;;4.17;3.03;;;;;;;;;;5078712;28;20553;-64
2023/03/13 02:47:56;;;;;;;4.33;3.33;;;;;;;;;;5078958;28;20681;-64
2023/03/13 02:50:24;;;;;;;6.30;3.70;;;;;;;;;;5078844;28;20231;-64
2023/03/13 02:52:54;;;;;;;5.37;3.30;;;;;;;;;;5079239;28;20237;-64
2023/03/13 02:55:24;;;;;;;6.97;3.67;;;;;;;;;;5079117;28;20206;-65
2023/03/13 02:57:52;;;;;;;6.27;3.57;;;;;;;;;;5079114;28;20216;-65
2023/03/13 03:00:25;;;;;;;6.70;3.70;;;;;;;;;;5078655;28;20249;-65
2023/03/13 03:02:54;;;;;;;6.80;3.23;;;;;;;;;;5078763;28;20218;-65
2023/03/13 03:05:22;;;;;;;5.30;3.27;;;;;;;;;;5078730;28;20572;-64
2023/03/13 03:07:50;;;;;;;5.27;3.17;;;;;;;;;;5078694;28;20704;-65
2023/03/13 03:10:19;;;;;;;7.57;3.70;;;;;;;;;;5078441;28;20245;-64
2023/03/13 03:12:47;;;;;;;4.73;3.10;;;;;;;;;;5078719;28;20210;-64
2023/03/13 03:15:15;;;;;;;6.90;3.37;;;;;;;;;;5078609;28;20210;-64
2023/03/13 03:17:44;;;;;;;4.47;3.27;;;;;;;;;;5068337;28;20207;-64
2023/03/13 03:20:12;;;;;;;4.43;3.10;;;;;;;;;;5078414;28;20226;-64
2023/03/13 03:22:40;;;;;;;4.20;2.93;;;;;;;;;;5078300;28;20210;-65
2023/03/13 03:25:09;;;;;;;5.93;2.97;;;;;;;;;;5078732;28;20217;-64
2023/03/13 03:27:37;;;;;;;6.60;3.23;;;;;;;;;;5078560;28;20234;-64
2023/03/13 03:30:05;;;;;;;6.27;3.53;;;;;;;;;;5078294;28;20316;-64
2023/03/13 03:32:33;;;;;;;4.97;3.17;;;;;;;;;;5078391;28;20209;-64
2023/03/13 03:35:03;;;;;;;4.63;2.87;;;;;;;;;;5078169;28;20284;-65
2023/03/13 03:37:31;;;;;;;5.70;3.23;;;;;;;;;;5078244;28;20292;-64
2023/03/13 03:39:59;;;;;;;4.23;3.17;;;;;;;;;;5078001;28;20321;-64
2023/03/13 03:42:26;;;;;;;4.17;3.23;;;;;;;;;;5078319;28;20285;-64
2023/03/13 03:44:54;;;;;;;3.33;3.03;;;;;;;;;;5078060;28;20210;-64
2023/03/13 03:47:22;;;;;;;5.80;4.10;;;;;;;;;;5078171;28;20202;-64
2023/03/13 03:49:50;;;;;;;4.50;3.13;;;;;;;;;;5078217;28;20234;-64
2023/03/13 03:52:20;;;;;;;5.50;3.00;;;;;;;;;;5077931;28;20693;-64
2023/03/13 03:54:48;;;;;;;4.67;3.50;;;;;;;;;;5078178;28;20217;-64
2023/03/13 03:57:19;;;;;;;7.47;3.80;;;;;;;;;;5077340;28;20295;-64
2023/03/13 03:59:47;;;;;;;7.10;4.10;;;;;;;;;;5077434;28;20260;-64
2023/03/13 04:02:15;;;;;;;5.37;3.53;;;;;;;;;;5078031;28;20210;-64
2023/03/13 04:04:44;;;;;;;7.83;3.93;;;;;;;;;;5077885;28;20221;-64
2023/03/13 04:07:12;;;;;;;5.73;3.30;;;;;;;;;;5077993;28;20220;-64
2023/03/13 04:09:41;;;;;;;4.63;3.43;;;;;;;;;;5077570;28;20245;-64
2023/03/13 04:12:09;;;;;;;7.40;3.07;;;;;;;;;;5077803;28;20229;-64
2023/03/13 04:14:37;;;;;;;3.30;2.97;;;;;;;;;;5077382;28;20248;-64
2023/03/13 04:17:05;;;;;;;4.30;3.10;;;;;;;;;;5077715;28;20659;-64
2023/03/13 04:19:33;;;;;;;6.97;3.50;;;;;;;;;;5077552;28;20684;-64
2023/03/13 04:22:01;;;;;;;7.87;3.17;;;;;;;;;;5077843;28;20245;-64
2023/03/13 04:24:29;;;;;;;3.67;3.37;;;;;;;;;;5077604;28;20218;-64
2023/03/13 04:26:58;;;;;;;4.43;2.90;;;;;;;;;;5077632;28;20221;-64
2023/03/13 04:29:26;;;;;;;5.37;3.20;;;;;;;;;;5077424;28;20309;-64
2023/03/13 04:31:54;;;;;;;3.60;3.00;;;;;;;;;;5077456;28;20209;-64
2023/03/13 04:34:22;;;;;;;6.40;3.07;;;;;;;;;;5077751;28;20210;-63
2023/03/13 04:36:50;;;;;;;4.77;3.33;;;;;;;;;;5077485;28;20232;-64
2023/03/13 04:39:18;;;;;;;5.93;3.10;;;;;;;;;;5077236;28;20578;-64
2023/03/13 04:41:46;;;;;;;4.53;3.10;;;;;;;;;;5077409;28;20230;-64
2023/03/13 04:44:15;;;;;;;7.33;4.13;;;;;;;;;;5077391;28;20240;-64
2023/03/13 04:46:43;;;;;;;5.97;3.10;;;;;;;;;;5077579;28;20288;-64
2023/03/13 04:49:11;;;;;;;6.83;3.47;;;;;;;;;;5077272;28;20202;-63
2023/03/13 04:51:39;;;;;;;4.43;4.03;;;;;;;;;;5077632;28;20262;-64
2023/03/13 04:54:07;;;;;;;4.13;3.13;;;;;;;;;;5077581;28;20213;-63
2023/03/13 04:56:35;;;;;;;5.70;2.73;;;;;;;;;;5077423;28;20238;-64
2023/03/13 04:59:11;;;;;;;4.97;2.87;;;;;;;;;;5076916;28;20718;-64
2023/03/13 05:01:40;;;;;;;4.03;3.00;;;;;;;;;;5076977;28;20647;-64
2023/03/13 05:04:09;;;;;;;4.97;2.87;;;;;;;;;;5077258;28;20234;-64
2023/03/13 05:06:37;;;;;;;3.90;2.80;;;;;;;;;;5077431;28;20202;-64
2023/03/13 05:09:05;;;;;;;3.37;2.80;;;;;;;;;;5077166;28;20266;-64
2023/03/13 05:11:33;;;;;;;3.70;2.70;;;;;;;;;;5080954;28;20257;-64
2023/03/13 05:14:01;;;;;;;3.47;2.97;;;;;;;;;;5080890;28;20202;-63
2023/03/13 05:16:29;;;;;;;3.20;2.90;;;;;;;;;;5080096;28;20218;-64
2023/03/13 05:18:58;;;;;;;5.27;2.67;;;;;;;;;;5070182;28;20205;-64
2023/03/13 05:21:33;;;;;;;4.17;3.23;;;;;;;;;;5080201;28;20194;-64
2023/03/13 05:24:01;;;;;;;2.77;2.53;;;;;;;;;;5075007;28;20206;-64
2023/03/13 05:26:29;;;;;;;4.80;3.13;;;;;;;;;;5080302;28;20619;-64
2023/03/13 05:28:56;;;;;;;3.90;3.13;;;;;;;;;;5081982;28;20285;-64
2023/03/13 05:31:25;;;;;;;3.57;2.80;;;;;;;;;;5080995;28;20551;-64
2023/03/13 05:33:53;;;;;;;3.73;3.17;;;;;;;;;;5089198;28;20241;-64
2023/03/13 05:36:22;;;;;;;4.20;3.00;;;;;;;;;;5100700;28;20241;-63
2023/03/13 05:38:50;;;;;;;3.77;3.10;;;;;;;;;;5100973;28;20212;-64
2023/03/13 05:41:18;;;;;;;5.13;3.53;;;;;;;;;;5079510;28;20253;-64
2023/03/13 05:43:49;;;;;;;3.90;3.00;;;;;;;;;;5081890;28;20233;-64
2023/03/13 05:46:17;;;;;;;3.57;2.70;;;;;;;;;;5080153;28;20256;-64
2023/03/13 05:48:46;;;;;;;5.90;3.30;;;;;;;;;;5074110;28;20321;-64
2023/03/13 05:51:14;;;;;;;4.13;3.07;;;;;;;;;;5080917;28;20305;-64
2023/03/13 05:53:43;;;;;;;2.90;2.70;;;;;;;;;;5078793;28;20194;-64
2023/03/13 05:56:11;;;;;;;4.70;3.10;;;;;;;;;;5081695;28;20213;-64
2023/03/13 05:58:39;;;;;;;4.60;3.30;;;;;;;;;;5080731;28;20238;-64
2023/03/13 06:01:08;;;;;;;3.80;3.00;;;;;;;;;;5078634;28;20216;-64
2023/03/13 06:03:35;;;;;;;5.20;3.10;;;;;;;;;;5098552;28;20212;-64
2023/03/13 06:06:04;;;;;;;5.10;2.93;;;;;;;;;;5100128;28;20212;-64
2023/03/13 06:08:32;;;;;;;3.60;3.30;;;;;;;;;;5100339;28;20255;-64
2023/03/13 06:11:03;;;;;;;4.90;3.07;;;;;;;;;;5100203;28;20324;-64
2023/03/13 06:13:31;;;;;;;4.03;3.07;;;;;;;;;;5092202;28;20240;-64
2023/03/13 06:15:59;;;;;;;4.60;3.47;;;;;;;;;;5099803;28;20588;-66
2023/03/13 06:18:27;;;;;;;5.03;3.67;;;;;;;;;;5066077;28;20289;-64
2023/03/13 06:20:59;;;;;;;5.60;4.13;;;;;;;;;;5078817;28;20630;-64
2023/03/13 06:23:27;;;;;;;4.20;3.73;;;;;;;;;;5079841;28;20237;-64
2023/03/13 06:25:55;;;;;;;6.60;3.87;;;;;;;;;;5079522;28;20209;-64
2023/03/13 06:28:24;;;;;;;7.67;3.77;;;;;;;;;;5079171;28;20340;-64
2023/03/13 06:30:52;;;;;;;5.97;3.87;;;;;;;;;;5079389;28;20262;-64
2023/03/13 06:33:20;;;;;;;5.70;2.80;;;;;;;;;;5079425;28;20577;-64
2023/03/13 06:35:48;;;;;;;4.37;3.13;;;;;;;;;;5079281;28;20256;-64
2023/03/13 06:38:24;;;;;;;6.37;3.27;;;;;;;;;;5078440;28;20703;-65
2023/03/13 06:40:52;;;;;;;5.87;3.87;;;;;;;;;;5079108;28;20222;-65
2023/03/13 06:43:20;;;;;;;7.07;3.17;;;;;;;;;;5078847;28;20680;-63
2023/03/13 06:45:49;;;;;;;4.53;3.50;;;;;;;;;;5078839;28;20616;-65
2023/03/13 06:48:18;;;;;;;4.83;2.70;;;;;;;;;;5079402;28;20244;-65
2023/03/13 06:50:46;;;;;;;6.93;3.13;;;;;;;;;;5078941;28;20222;-64
2023/03/13 06:53:15;;;;;;;3.70;2.80;;;;;;;;;;5078895;28;20202;-63
2023/03/13 06:55:43;;;;;;;6.50;2.90;;;;;;;;;;5079084;28;20297;-64
2023/03/13 06:58:11;;;;;;;4.50;3.30;;;;;;;;;;5079007;28;20210;-65
2023/03/13 07:00:59;;;;;;;3.23;2.83;;;;;;;;;;5078697;28;20689;-65
2023/03/13 07:03:27;;;;;;;3.67;3.07;;;;;;;;;;5078737;28;20673;-64
2023/03/13 07:05:56;;;;;;;5.53;2.73;;;;;;;;;;5078838;28;20202;-65
2023/03/13 07:08:25;;;;;;;3.23;2.87;;;;;;;;;;5078423;28;20293;-65
2023/03/13 07:10:53;;;;;;;3.00;2.67;;;;;;;;;;5078777;28;20257;-65
2023/03/13 07:13:21;;;;;;;4.77;3.13;;;;;;;;;;5078209;28;20225;-65
2023/03/13 07:15:50;;;;;;;8.93;5.73;;;;;;;;;;5072385;28;20209;-65
2023/03/13 07:18:19;;;;;;;3.83;2.90;;;;;;;;;;5074081;28;20230;-65
2023/03/13 07:20:52;;;;;;;2.53;2.33;;;;;;;;;;5078468;28;20232;-65
2023/03/13 07:23:20;;;;;;;3.27;2.40;;;;;;;;;;5078660;28;20238;-66
2023/03/13 07:25:52;;;;;;;4.23;2.40;;;;;;;;;;5078502;28;20202;-66
2023/03/13 07:28:20;;;;;;;3.37;2.23;;;;;;;;;;5078124;28;20202;-68
2023/03/13 07:30:49;;;;;;;3.67;2.90;;;;;;;;;;5078151;28;20230;-66
2023/03/13 07:33:17;;;;;;;2.70;2.50;;;;;;;;;;5077624;28;20316;-72
2023/03/13 07:35:49;;;;;;;4.40;2.73;;;;;;;;;;5078310;28;20207;-72
2023/03/13 07:38:17;;;;;;;4.43;2.57;;;;;;;;;;5078318;28;20238;-73
2023/03/13 07:40:49;;;;;;;4.67;3.00;;;;;;;;;;5084747;28;20275;-73
2023/03/13 07:43:17;;;;;;;7.50;2.50;;;;;;;;;;5082493;28;20217;-72
2023/03/13 07:45:52;;;;;;;2.53;2.13;;;;;;;;;;5079785;28;20202;-71
2023/03/13 07:48:20;;;;;;;2.90;2.40;;;;;;;;;;5077784;28;20237;-69
2023/03/13 07:50:50;;;;;;;3.37;2.60;;;;;;;;;;5073466;28;21024;-71
2023/03/13 07:53:20;;;;;;;2.73;2.00;;;;;;;;;;5070944;28;20226;-69
2023/03/13 07:55:55;;;;;;;2.67;2.30;;;;;;;;;;5078089;28;20213;-68
2023/03/13 07:58:23;;;;;;;2.57;2.37;;;;;;;;;;5077269;28;20687;-68
2023/03/13 08:00:51;;;;;;;2.40;2.23;;;;;;;;;;5072308;28;20316;-65
2023/03/13 08:03:19;;;;;;;3.17;2.37;;;;;;;;;;5077782;28;20227;-67
2023/03/13 08:05:47;;;;;;;3.07;2.30;;;;;;;;;;5076656;28;20263;-67
2023/03/13 08:08:20;;;;;;;3.37;2.63;;;;;;;;;;5067418;28;20203;-66
2023/03/13 08:10:48;;;;;;;2.93;2.00;;;;;;;;;;5074564;28;20717;-67
2023/03/13 08:13:16;;;;;;;2.00;1.80;;;;;;;;;;5071707;28;20233;-67
2023/03/13 08:15:44;;;;;;;2.63;2.30;;;;;;;;;;5077334;28;20219;-67
2023/03/13 08:18:12;;;;;;;8.43;2.40;;;;;;;;;;5077313;28;20198;-65
2023/03/13 08:20:39;;;;;;;3.47;2.10;;;;;;;;;;5077243;28;20623;-67
2023/03/13 08:23:07;;;;;;;5.73;2.00;;;;;;;;;;5077509;28;20230;-66
2023/03/13 08:25:37;;;;;;;4.50;2.20;;;;;;;;;;5077311;28;20214;-66
2023/03/13 08:28:05;;;;;;;3.60;2.20;;;;;;;;;;5075604;28;20240;-68
2023/03/13 08:30:32;;;;;;;5.63;2.27;;;;;;;;;;5077221;28;20265;-66
2023/03/13 08:33:00;;;;;;;2.47;1.87;;;;;;;;;;5076963;28;20589;-66
2023/03/13 08:35:29;;;;;;;4.07;2.47;;;;;;;;;;5077274;28;20207;-66
2023/03/13 08:37:57;;;;;;;3.60;2.07;;;;;;;;;;5072304;28;20202;-65
2023/03/13 08:40:25;;;;;;;4.63;2.00;;;;;;;;;;5076975;28;20305;-68
2023/03/13 08:42:55;;;;;;;4.43;2.40;;;;;;;;;;5077307;28;20198;-66
2023/03/13 08:45:23;;;;;;;3.83;2.17;;;;;;;;;;5073035;28;20230;-68
2023/03/13 08:47:52;;;;;;;3.47;1.80;;;;;;;;;;5078230;28;20209;-68
2023/03/13 08:50:20;;;;;;;2.10;1.90;;;;;;;;;;5080990;28;20307;-70
2023/03/13 08:52:48;;;;;;;2.20;1.80;;;;;;;;;;5082993;28;20692;-67
2023/03/13 08:55:16;;;;;;;2.60;2.10;;;;;;;;;;5078782;28;20289;-66
2023/03/13 08:57:44;;;;;;;2.27;2.07;;;;;;;;;;5079767;28;20213;-65
2023/03/13 09:00:14;;;;;;;3.30;2.30;;;;;;;;;;5080972;28;20218;-67
2023/03/13 09:02:43;;;;;;;5.97;2.20;;;;;;;;;;5080798;28;20237;-67
2023/03/13 09:05:11;;;;;;;3.67;2.43;;;;;;;;;;5080679;28;20206;-65
2023/03/13 09:07:39;;;;;;;6.30;2.10;;;;;;;;;;5080266;28;20288;-67
2023/03/13 09:10:07;;;;;;;2.30;2.10;;;;;;;;;;5079800;28;20234;-67
2023/03/13 09:12:35;;;;;;;3.60;2.00;;;;;;;;;;5080086;28;20222;-66
2023/03/13 09:15:03;;;;;;;4.33;2.10;;;;;;;;;;5095929;28;20205;-66
2023/03/13 09:17:33;;;;;;;1.90;1.70;;;;;;;;;;5086089;28;20209;-66
2023/03/13 09:20:00;;;;;;;2.10;1.87;;;;;;;;;;5071102;28;20230;-67
2023/03/13 09:22:28;;;;;;;2.50;1.83;;;;;;;;;;5080372;28;20581;-65
2023/03/13 09:24:56;;;;;;;3.00;1.90;;;;;;;;;;5080394;28;20684;-66
2023/03/13 09:27:24;;;;;;;2.73;2.17;;;;;;;;;;5080634;28;20217;-65
2023/03/13 09:29:52;;;;;;;4.53;2.03;;;;;;;;;;5080126;28;20261;-68
2023/03/13 09:32:20;;;;;;;1.63;1.43;;;;;;;;;;5080368;28;20214;-65
2023/03/13 09:34:50;;;;;;;2.23;1.70;;;;;;;;;;5079177;28;20248;-64
2023/03/13 09:37:17;;;;;;;4.30;1.70;;;;;;;;;;5076992;28;20685;-64
2023/03/13 09:39:45;;;;;;;1.43;1.30;;;;;;;;;;5078897;28;20230;-63
2023/03/13 09:42:16;;;;;;;1.53;1.40;;;;;;;;;;5080223;28;20199;-65
2023/03/13 09:44:46;;;;;;;4.00;1.60;;;;;;;;;;5080200;28;20294;-64
2023/03/13 09:47:18;;;;;;;3.80;1.97;;;;;;;;;;5083765;28;20205;-65
2023/03/13 09:49:50;;;;;;;2.07;1.47;;;;;;;;;;5075811;28;20241;-63
2023/03/13 09:52:22;;;;;;;1.97;1.40;;;;;;;;;;5073565;28;20208;-65
2023/03/13 09:54:52;;;;;;;2.13;1.40;;;;;;;;;;5077967;28;20202;-64
2023/03/13 09:57:22;;;;;;;4.73;2.90;;;;;;;;;;5074468;28;20245;-63
2023/03/13 09:59:53;;;;;;;1.80;1.63;;;;;;;;;;5077756;28;20257;-65
2023/03/13 10:02:28;;;;;;;2.37;1.50;;;;;;;;;;5077942;28;20241;-63
2023/03/13 10:04:59;;;;;;;2.40;1.57;;;;;;;;;;5069442;28;20220;-64
2023/03/13 10:07:29;;;;;;;2.13;1.53;;;;;;;;;;5074214;28;20201;-65
2023/03/13 10:09:56;;;;;;;1.80;1.07;;;;;;;;;;5079563;28;20237;-64
2023/03/13 10:12:26;;;;;;;2.90;1.37;;;;;;;;;;5079344;28;20290;-64
2023/03/13 10:15:00;;;;;;;1.27;1.17;;;;;;;;;;5079442;28;20631;-66
2023/03/13 10:17:31;;;;;;;2.33;1.30;;;;;;;;;;5079767;28;20210;-67
2023/03/13 10:20:07;;;;;;;1.20;1.10;;;;;;;;;;5079897;28;20320;-67
2023/03/13 10:22:37;;;;;;;1.40;1.20;;;;;;;;;;5079763;28;20233;-67
2023/03/13 10:25:09;;;;;;;3.97;1.37;;;;;;;;;;5076605;28;20208;-66
2023/03/13 10:27:44;;;;;;;2.07;1.20;;;;;;;;;;5079692;28;20259;-65
2023/03/13 10:30:19;;;;;;;2.17;1.30;;;;;;;;;;5076913;28;20309;-67
2023/03/13 10:32:47;;;;;;;1.83;1.17;;;;;;;;;;5077956;28;20202;-67
2023/03/13 10:35:20;;;;;;;1.37;0.80;;;;;;;;;;5079195;28;20260;-67
2023/03/13 10:37:50;;;;;;;1.53;1.10;;;;;;;;;;5079118;28;20209;-66
2023/03/13 10:40:22;;;;;;;1.20;0.97;;;;;;;;;;5078651;28;20305;-66
2023/03/13 10:42:51;;;;;;;1.10;1.00;;;;;;;;;;5078962;28;20238;-66
2023/03/13 10:45:20;;;;;;;2.30;0.80;;;;;;;;;;5079156;28;20289;-67
2023/03/13 10:47:54;;;;;;;2.23;0.80;;;;;;;;;;5079254;28;20210;-66
2023/03/13 10:50:23;;;;;;;1.10;0.97;;;;;;;;;;5076462;28;20237;-65
2023/03/13 10:52:53;;;;;;;3.00;0.80;;;;;;;;;;5079214;28;20241;-65
2023/03/13 10:55:22;;;;;;;0.90;0.90;;;;;;;;;;5079194;28;20206;-65
2023/03/13 10:57:57;;;;;;;2.63;1.17;;;;;;;;;;5078785;28;20234;-65
2023/03/13 11:00:28;;;;;;;1.63;0.90;;;;;;;;;;5078744;28;20221;-65
2023/03/13 11:02:57;;;;;;;0.73;0.73;;;;;;;;;;5098288;28;20703;-65
2023/03/13 11:05:33;;;;;;;1.50;0.70;;;;;;;;;;5099354;28;20259;-65
2023/03/13 11:08:12;;;;;;;1.10;0.70;;;;;;;;;;5099090;28;20201;-66
2023/03/13 11:10:51;;;;;;;1.70;1.00;;;;;;;;;;5090966;28;20221;-66
2023/03/13 11:13:27;;;;;;;0.80;0.80;;;;;;;;;;5078627;28;20217;-67
2023/03/13 11:16:11;;;;;;;0.80;0.70;;;;;;;;;;5078510;28;20215;-67
2023/03/13 11:18:46;;;;;;;1.77;0.70;;;;;;;;;;5078721;28;20206;-66
2023/03/13 11:21:18;;;;;;;0.67;0.67;;;;;;;;;;5078443;28;20293;-66
2023/03/13 11:23:50;;;;;;;1.00;0.70;;;;;;;;;;5078377;28;20230;-66
2023/03/13 11:26:31;;;;;;;0.90;0.70;;;;;;;;;;5078454;28;20685;-66
2023/03/13 11:29:07;;;;;;;0.83;0.70;;;;;;;;;;5077956;28;20658;-66
2023/03/13 11:31:37;;;;;;;2.63;0.70;;;;;;;;;;5078173;28;20295;-64
2023/03/13 11:34:06;;;;;;;1.27;0.90;;;;;;;;;;5078469;28;20290;-64
2023/03/13 11:36:35;;;;;;;2.10;0.90;;;;;;;;;;5078512;28;20286;-64
2023/03/13 11:39:11;;;;;;;1.03;0.60;;;;;;;;;;5078340;28;20216;-64
2023/03/13 11:41:57;;;;;;;1.60;0.60;;;;;;;;;;5078178;28;20294;-64
2023/03/13 11:44:30;;;;;;;0.90;0.80;;;;;;;;;;5078169;28;20281;-63
2023/03/13 11:47:23;;;;;;;5.20;1.00;;;;;;;;;;5078185;28;20209;-63
2023/03/13 11:49:59;;;;;;;1.57;0.80;;;;;;;;;;5078009;28;20670;-65
2023/03/13 11:52:40;;;;;;;2.03;1.00;;;;;;;;;;5078157;28;20209;-65
2023/03/13 11:55:26;;;;;;;2.00;1.00;;;;;;;;;;5078104;28;20233;-65
2023/03/13 11:58:00;;;;;;;1.33;1.10;;;;;;;;;;5067837;28;20245;-64
2023/03/13 12:00:30;;;;;;;1.07;0.70;;;;;;;;;;5077807;28;20711;-64
2023/03/13 12:03:03;;;;;;;0.97;0.83;;;;;;;;;;5077837;28;20229;-64
2023/03/13 12:05:37;;;;;;;1.90;0.90;;;;;;;;;;5077992;28;20237;-65
2023/03/13 12:08:07;;;;;;;1.30;1.00;;;;;;;;;;5077776;28;20237;-65
2023/03/13 12:10:38;;;;;;;1.13;0.93;;;;;;;;;;5077689;28;20257;-65
2023/03/13 12:13:12;;;;;;;1.17;1.07;;;;;;;;;;5077737;28;20249;-64
2023/03/13 12:15:41;;;;;;;1.00;0.63;;;;;;;;;;5078089;28;20230;-63
2023/03/13 12:18:15;;;;;;;0.83;0.83;;;;;;;;;;5077380;28;20206;-63
2023/03/13 12:20:46;;;;;;;1.40;0.90;;;;;;;;;;5076490;28;20257;-63
2023/03/13 12:23:17;;;;;;;3.37;2.63;;;;;;;;;;5076095;28;20203;-63
2023/03/13 12:25:48;;;;;;;4.43;3.63;;;;;;;;;;5078006;28;20285;-62
2023/03/13 12:28:23;;;;;;;0.87;0.80;;;;;;;;;;5077859;28;20216;-63
2023/03/13 12:30:54;;;;;;;4.13;0.93;;;;;;;;;;5077321;28;20234;-62
2023/03/13 12:33:25;;;;;;;4.93;0.90;;;;;;;;;;5077564;28;20202;-62
2023/03/13 12:35:56;;;;;;;1.17;0.70;;;;;;;;;;5077759;28;20257;-65
2023/03/13 12:38:26;;;;;;;0.70;0.70;;;;;;;;;;5077392;28;20228;-64
2023/03/13 12:41:01;;;;;;;0.83;0.77;;;;;;;;;;5072819;28;20222;-72
2023/03/13 12:43:31;;;;;;;3.47;0.90;;;;;;;;;;5069695;28;20252;-71
2023/03/13 12:46:11;;;;;;;0.80;0.80;;;;;;;;;;5077073;28;20601;-69
2023/03/13 12:48:49;;;;;;;1.90;0.90;;;;;;;;;;5081484;28;20205;-68
2023/03/13 12:51:23;;;;;;;0.80;0.80;;;;;;;;;;5077015;28;20297;-68
2023/03/13 12:54:05;;;;;;;3.03;0.80;;;;;;;;;;5076776;28;20256;-61
2023/03/13 12:56:38;;;;;;;1.33;0.90;;;;;;;;;;5074686;28;20206;-62
2023/03/13 12:59:11;;;;;;;1.77;0.80;;;;;;;;;;5076952;28;20198;-61
2023/03/13 13:01:40;;;;;;;0.50;0.50;;;;;;;;;;5072979;28;20244;-62
2023/03/13 13:04:12;;;;;;;2.43;0.70;;;;;;;;;;5077001;28;20585;-62
2023/03/13 13:06:51;;;;;;;2.30;0.83;;;;;;;;;;5076818;28;20672;-61
2023/03/13 13:09:20;;;;;;;1.47;0.60;;;;;;;;;;5076992;28;20238;-61
2023/03/13 13:11:50;;;;;;;0.97;0.83;;;;;;;;;;5076845;28;20230;-61
2023/03/13 13:14:37;;;;;;;1.03;0.83;;;;;;;;;;5076422;28;20801;-61
2023/03/13 13:17:16;;;;;;;1.53;0.60;;;;;;;;;;5071200;28;20366;-62
2023/03/13 13:19:46;;;;;;;0.73;0.73;;;;;;;;;;5074533;28;20731;-63
2023/03/13 13:22:35;;;;;;;0.47;0.47;;;;;;;;;;5077026;28;20202;-63
2023/03/13 13:25:23;;;;;;;1.10;0.70;;;;;;;;;;5076874;28;20203;-62
2023/03/13 13:27:51;;;;;;;0.90;0.60;;;;;;;;;;5076778;28;20210;-62
2023/03/13 13:30:30;;;;;;;1.87;0.70;;;;;;;;;;5077067;28;20226;-63
2023/03/13 13:33:27;;;;;;;0.50;0.50;;;;;;;;;;5079968;28;20206;-63
2023/03/13 13:36:09;;;;;;;8.87;0.90;;;;;;;;;;5069703;28;20314;-61
2023/03/13 13:38:39;;;;;;;1.73;0.73;;;;;;;;;;5080190;28;20210;-64
2023/03/13 13:41:25;;;;;;;2.30;1.30;;;;;;;;;;5078831;28;20627;-64
2023/03/13 13:44:07;;;;;;;1.77;1.30;;;;;;;;;;5080881;28;20199;-63
2023/03/13 13:46:35;;;;;;;0.60;0.50;;;;;;;;;;5077633;28;20194;-62
2023/03/13 13:49:13;;;;;;;1.00;0.70;;;;;;;;;;5097416;28;20205;-63
2023/03/13 13:51:42;;;;;;;4.00;0.80;;;;;;;;;;5077732;28;20306;-62
2023/03/13 13:54:25;;;;;;;1.20;0.70;;;;;;;;;;5079116;28;20206;-63
2023/03/13 13:56:56;;;;;;;0.63;0.40;;;;;;;;;;5079697;28;20691;-62
2023/03/13 13:59:30;;;;;;;1.23;0.70;;;;;;;;;;5079727;28;20283;-61
2023/03/13 14:02:16;;;;;;;2.23;0.83;;;;;;;;;;5079714;28;20271;-62
2023/03/13 14:04:49;;;;;;;4.00;0.80;;;;;;;;;;5070133;28;20252;-64
2023/03/13 14:07:19;;;;;;;0.93;0.70;;;;;;;;;;5080033;28;20208;-62
2023/03/13 14:09:49;;;;;;;1.23;0.80;;;;;;;;;;5079006;28;20238;-61
2023/03/13 14:12:27;;;;;;;3.37;0.83;;;;;;;;;;5079608;28;20233;-63
2023/03/13 14:15:15;;;;;;;0.77;0.77;;;;;;;;;;5079256;28;20291;-62
2023/03/13 14:17:44;;;;;;;2.13;0.90;;;;;;;;;;5079728;28;20210;-63
2023/03/13 14:20:28;;;;;;;1.13;1.03;;;;;;;;;;5078209;28;20736;-63
2023/03/13 14:22:56;;;;;;;0.60;0.60;;;;;;;;;;5078922;28;20566;-62
2023/03/13 14:25:28;;;;;;;1.13;0.67;;;;;;;;;;5079291;28;20207;-62
2023/03/13 14:27:56;;;;;;;0.97;0.50;;;;;;;;;;5079137;28;20232;-63
2023/03/13 14:30:26;;;;;;;0.70;0.70;;;;;;;;;;5079582;28;20234;-63
2023/03/13 14:32:54;;;;;;;0.80;0.80;;;;;;;;;;5079102;28;20203;-63
2023/03/13 14:35:22;;;;;;;1.17;0.67;;;;;;;;;;5079372;28;20233;-63
2023/03/13 14:37:53;;;;;;;1.30;0.70;;;;;;;;;;5079139;28;20265;-62
2023/03/13 14:40:23;;;;;;;0.90;0.63;;;;;;;;;;5079091;28;20222;-61
2023/03/13 14:42:52;;;;;;;1.13;0.60;;;;;;;;;;5078492;28;20290;-62
2023/03/13 14:45:22;;;;;;;0.80;0.80;;;;;;;;;;5079351;28;20238;-63
2023/03/13 14:47:50;;;;;;;1.03;0.73;;;;;;;;;;5077886;28;20206;-63
2023/03/13 14:50:19;;;;;;;0.80;0.80;;;;;;;;;;5073348;28;20657;-63
2023/03/13 14:52:48;;;;;;;3.30;0.90;;;;;;;;;;5076422;28;20237;-63
2023/03/13 14:55:30;;;;;;;2.37;0.80;;;;;;;;;;5076857;28;20230;-62
2023/03/13 14:57:58;;;;;;;1.07;1.00;;;;;;;;;;5077273;28;20214;-63
2023/03/13 15:00:31;;;;;;;2.20;1.10;;;;;;;;;;5077054;28;20233;-64
2023/03/13 15:03:18;;;;;;;1.27;0.80;;;;;;;;;;5078212;28;20276;-63